createdAt,value
2023-03-06T00:00:16.118Z,22.93
2023-03-06T00:02:44.480Z,22.95
2023-03-06T00:05:13.041Z,22.94
2023-03-06T00:07:41.134Z,22.93
2023-03-06T00:10:13.326Z,22.94
2023-03-06T00:12:41.141Z,22.96
2023-03-06T00:15:09.317Z,22.94
2023-03-06T00:17:38.339Z,22.96
2023-03-06T00:20:07.286Z,22.95
2023-03-06T00:22:35.470Z,22.98
2023-03-06T00:25:03.007Z,22.98
2023-03-06T00:27:31.780Z,22.97
2023-03-06T00:30:01.641Z,22.97
2023-03-06T00:32:29.489Z,22.96
2023-03-06T00:34:58.561Z,22.97
2023-03-06T00:37:26.461Z,22.97
2023-03-06T00:39:54.225Z,22.97
2023-03-06T00:42:22.834Z,22.95
2023-03-06T00:44:52.708Z,22.98
2023-03-06T00:47:20.302Z,22.98
2023-03-06T00:49:47.854Z,22.96
2023-03-06T00:52:17.037Z,22.98
2023-03-06T00:54:44.593Z,22.97
2023-03-06T00:57:12.108Z,22.98
2023-03-06T00:59:39.655Z,22.99
2023-03-06T01:02:07.687Z,22.98
2023-03-06T01:04:35.606Z,23.01
2023-03-06T01:07:03.313Z,23.00
2023-03-06T01:09:33.003Z,23.00
2023-03-06T01:12:00.780Z,23.00
2023-03-06T01:14:28.591Z,22.99
2023-03-06T01:16:56.141Z,22.98
2023-03-06T01:19:23.779Z,22.99
2023-03-06T01:21:51.302Z,23.00
2023-03-06T01:24:18.895Z,23.00
2023-03-06T01:26:47.975Z,23.00
2023-03-06T01:29:15.551Z,23.00
2023-03-06T01:31:43.308Z,23.00
2023-03-06T01:34:11.118Z,23.00
2023-03-06T01:36:38.731Z,23.01
2023-03-06T01:39:06.322Z,22.99
2023-03-06T01:41:33.975Z,23.02
2023-03-06T01:44:03.262Z,23.01
2023-03-06T01:46:34.398Z,23.01
2023-03-06T01:49:07.927Z,23.02
2023-03-06T01:51:39.314Z,23.02
2023-03-06T01:54:12.029Z,23.02
2023-03-06T01:56:41.975Z,23.02
2023-03-06T01:59:11.352Z,23.02
2023-03-06T02:01:41.372Z,23.02
2023-03-06T02:04:10.489Z,23.03
2023-03-06T02:06:40.312Z,23.03
2023-03-06T02:09:07.848Z,23.01
2023-03-06T02:11:35.469Z,23.03
2023-03-06T02:14:03.478Z,23.02
2023-03-06T02:16:33.829Z,23.02
2023-03-06T02:19:03.083Z,23.02
2023-03-06T02:21:34.901Z,23.00
2023-03-06T02:24:23.861Z,23.04
2023-03-06T02:26:53.740Z,23.03
2023-03-06T02:29:25.240Z,23.01
2023-03-06T02:31:52.740Z,23.00
2023-03-06T02:34:50.893Z,22.99
2023-03-06T02:37:18.616Z,22.98
2023-03-06T02:39:52.354Z,22.96
2023-03-06T02:42:24.938Z,22.96
2023-03-06T02:44:55.326Z,22.95
2023-03-06T02:47:23.195Z,22.96
2023-03-06T02:49:50.876Z,22.96
2023-03-06T02:52:18.873Z,22.95
2023-03-06T02:54:46.453Z,22.95
2023-03-06T02:57:14.042Z,22.95
2023-03-06T02:59:43.554Z,22.96
2023-03-06T03:02:11.470Z,22.97
2023-03-06T03:04:39.026Z,22.91
2023-03-06T03:07:07.205Z,22.95
2023-03-06T03:09:35.730Z,22.94
2023-03-06T03:12:05.843Z,22.96
2023-03-06T03:14:34.227Z,22.96
2023-03-06T03:17:04.685Z,22.95
2023-03-06T03:19:32.306Z,22.97
2023-03-06T03:21:59.994Z,22.99
2023-03-06T03:24:27.754Z,22.99
2023-03-06T03:26:55.923Z,23.00
2023-03-06T03:29:24.974Z,23.01
2023-03-06T03:31:53.981Z,23.02
2023-03-06T03:34:26.768Z,23.03
2023-03-06T03:36:54.576Z,23.02
2023-03-06T03:39:22.829Z,23.03
2023-03-06T03:41:51.049Z,23.03
2023-03-06T03:44:19.919Z,23.01
2023-03-06T03:46:47.563Z,23.00
2023-03-06T03:49:20.510Z,23.02
2023-03-06T03:51:50.472Z,22.99
2023-03-06T03:54:19.157Z,22.99
2023-03-06T03:56:48.569Z,23.01
2023-03-06T03:59:22.665Z,22.99
2023-03-06T04:02:28.883Z,23.01
2023-03-06T04:05:05.474Z,23.01
2023-03-06T04:07:34.621Z,23.01
2023-03-06T04:10:02.706Z,22.99
2023-03-06T04:12:31.236Z,22.98
2023-03-06T04:14:59.348Z,23.00
2023-03-06T04:17:27.018Z,22.99
2023-03-06T04:19:55.876Z,22.98
2023-03-06T04:22:23.779Z,23.00
2023-03-06T04:24:53.662Z,23.02
2023-03-06T04:27:21.859Z,22.99
2023-03-06T04:29:49.891Z,22.99
2023-03-06T04:32:19.731Z,23.00
2023-03-06T04:34:48.913Z,23.00
2023-03-06T04:37:20.544Z,22.89
2023-03-06T04:39:48.132Z,22.94
2023-03-06T04:42:17.595Z,22.96
2023-03-06T04:44:45.357Z,22.89
2023-03-06T04:47:13.557Z,23.10
2023-03-06T04:49:41.064Z,23.12
2023-03-06T04:52:08.964Z,23.07
2023-03-06T04:54:36.500Z,23.04
2023-03-06T04:57:04.179Z,22.86
2023-03-06T04:59:33.212Z,22.93
2023-03-06T05:02:00.802Z,22.67
2023-03-06T05:04:28.412Z,22.24
2023-03-06T05:06:55.983Z,22.15
2023-03-06T05:09:23.620Z,21.37
2023-03-06T05:11:51.189Z,21.22
2023-03-06T05:14:18.795Z,21.14
2023-03-06T05:16:48.020Z,20.96
2023-03-06T05:19:15.851Z,20.63
2023-03-06T05:21:43.480Z,20.63
2023-03-06T05:24:11.293Z,20.91
2023-03-06T05:26:38.965Z,21.85
2023-03-06T05:29:07.685Z,21.79
2023-03-06T05:31:35.465Z,21.98
2023-03-06T05:34:04.580Z,22.08
2023-03-06T05:36:32.108Z,21.46
2023-03-06T05:38:59.680Z,21.54
2023-03-06T05:41:27.227Z,21.40
2023-03-06T05:43:54.774Z,21.56
2023-03-06T05:46:22.321Z,21.67
2023-03-06T05:48:50.181Z,21.95
2023-03-06T05:51:19.570Z,22.12
2023-03-06T05:53:47.537Z,22.23
2023-03-06T05:56:15.067Z,22.29
2023-03-06T05:58:42.820Z,22.33
2023-03-06T06:01:12.095Z,22.41
2023-03-06T06:03:39.787Z,22.40
2023-03-06T06:06:09.045Z,22.46
2023-03-06T06:08:38.599Z,22.45
2023-03-06T06:11:07.784Z,22.48
2023-03-06T06:13:35.824Z,22.55
2023-03-06T06:16:07.840Z,22.57
2023-03-06T06:18:35.898Z,22.61
2023-03-06T06:21:06.347Z,22.61
2023-03-06T06:23:33.897Z,22.62
2023-03-06T06:26:04.938Z,22.58
2023-03-06T06:28:32.857Z,22.60
2023-03-06T06:31:01.151Z,22.62
2023-03-06T06:33:28.786Z,22.64
2023-03-06T06:35:56.377Z,22.63
2023-03-06T06:38:24.030Z,22.66
2023-03-06T06:41:26.870Z,22.66
2023-03-06T06:43:40.575Z,22.67
2023-03-06T06:46:36.533Z,22.59
2023-03-06T06:48:55.905Z,22.75
2023-03-06T06:51:23.726Z,22.98
2023-03-06T06:53:52.797Z,22.91
2023-03-06T06:56:20.376Z,22.88
2023-03-06T06:58:51.592Z,22.99
2023-03-06T07:01:19.276Z,23.23
2023-03-06T07:03:46.927Z,22.95
2023-03-06T07:06:14.821Z,22.92
2023-03-06T07:08:42.517Z,22.86
2023-03-06T07:11:14.323Z,22.90
2023-03-06T07:13:42.023Z,22.97
2023-03-06T07:16:11.165Z,22.93
2023-03-06T07:18:38.769Z,22.85
2023-03-06T07:21:06.938Z,22.80
2023-03-06T07:23:34.469Z,22.82
2023-03-06T07:26:02.434Z,23.01
2023-03-06T07:28:35.581Z,22.93
2023-03-06T07:31:11.140Z,22.95
2023-03-06T07:33:39.216Z,22.91
2023-03-06T07:36:11.346Z,23.02
2023-03-06T07:38:40.374Z,22.98
2023-03-06T07:41:08.076Z,23.07
2023-03-06T07:43:35.689Z,23.10
2023-03-06T07:46:07.732Z,23.17
2023-03-06T07:48:37.337Z,23.26
2023-03-06T07:51:07.367Z,23.10
2023-03-06T07:53:35.480Z,23.05
2023-03-06T07:56:04.633Z,22.95
2023-03-06T07:58:32.165Z,22.96
2023-03-06T08:01:04.341Z,22.97
2023-03-06T08:03:31.929Z,23.03
2023-03-06T08:06:08.201Z,22.90
2023-03-06T08:08:36.274Z,22.88
2023-03-06T08:11:04.178Z,22.90
2023-03-06T08:13:31.933Z,22.89
2023-03-06T08:15:59.584Z,22.91
2023-03-06T08:18:27.350Z,23.12
2023-03-06T08:21:02.930Z,22.95
2023-03-06T08:23:32.409Z,22.98
2023-03-06T08:26:00.509Z,22.70
2023-03-06T08:28:28.269Z,22.80
2023-03-06T08:30:55.797Z,22.89
2023-03-06T08:33:23.928Z,22.93
2023-03-06T08:35:52.773Z,23.11
2023-03-06T08:38:20.534Z,23.23
2023-03-06T08:40:49.950Z,23.00
2023-03-06T08:43:17.586Z,22.96
2023-03-06T08:45:45.225Z,22.92
2023-03-06T08:48:12.811Z,22.94
2023-03-06T08:50:41.574Z,22.98
2023-03-06T08:53:09.288Z,23.26
2023-03-06T08:55:37.634Z,23.04
2023-03-06T08:58:06.793Z,22.98
2023-03-06T09:00:34.461Z,22.95
2023-03-06T09:03:02.992Z,22.96
2023-03-06T09:05:30.765Z,22.95
2023-03-06T09:07:58.365Z,22.91
2023-03-06T09:10:26.501Z,22.95
2023-03-06T09:12:55.228Z,22.96
2023-03-06T09:15:25.141Z,22.95
2023-03-06T09:17:52.423Z,22.89
2023-03-06T09:20:20.723Z,22.88
2023-03-06T09:22:48.630Z,22.91
2023-03-06T09:25:16.246Z,23.10
2023-03-06T09:27:43.881Z,23.03
2023-03-06T09:30:12.628Z,23.02
2023-03-06T09:32:41.857Z,22.97
2023-03-06T09:35:10.634Z,23.00
2023-03-06T09:37:38.207Z,22.96
2023-03-06T09:40:06.712Z,22.95
2023-03-06T09:42:36.088Z,23.02
2023-03-06T09:45:06.286Z,22.97
2023-03-06T09:47:45.089Z,22.95
2023-03-06T09:50:24.341Z,22.91
2023-03-06T09:53:05.430Z,22.86
2023-03-06T09:55:37.685Z,22.58
2023-03-06T09:58:13.574Z,22.69
2023-03-06T10:00:47.451Z,22.74
2023-03-06T10:03:26.671Z,22.61
2023-03-06T10:06:00.942Z,22.68
2023-03-06T10:08:39.973Z,22.84
2023-03-06T10:11:10.809Z,22.89
2023-03-06T10:13:41.716Z,23.06
2023-03-06T10:16:23.777Z,23.00
2023-03-06T10:18:53.771Z,22.90
2023-03-06T10:21:33.620Z,22.91
2023-03-06T10:24:11.161Z,23.06
2023-03-06T10:26:45.095Z,22.99
2023-03-06T10:29:33.423Z,22.89
2023-03-06T10:32:11.167Z,22.99
2023-03-06T10:34:42.779Z,23.00
2023-03-06T10:37:18.793Z,23.06
2023-03-06T10:39:46.988Z,23.02
2023-03-06T10:42:14.653Z,23.02
2023-03-06T10:44:42.217Z,23.05
2023-03-06T10:47:28.297Z,22.90
2023-03-06T10:50:02.175Z,23.08
2023-03-06T10:52:32.515Z,23.31
2023-03-06T10:55:25.117Z,23.26
2023-03-06T10:57:52.817Z,23.17
2023-03-06T11:00:31.189Z,23.35
2023-03-06T11:03:23.871Z,23.29
2023-03-06T11:06:12.169Z,23.24
2023-03-06T11:08:41.304Z,23.08
2023-03-06T11:11:12.972Z,23.10
2023-03-06T11:13:43.119Z,23.01
2023-03-06T11:16:18.937Z,23.26
2023-03-06T11:18:57.634Z,23.20
2023-03-06T11:21:31.099Z,23.04
2023-03-06T11:24:05.780Z,23.08
2023-03-06T11:26:40.812Z,23.18
2023-03-06T11:29:26.868Z,23.21
2023-03-06T11:31:59.423Z,23.15
2023-03-06T11:34:38.109Z,23.07
2023-03-06T11:37:15.532Z,23.07
2023-03-06T11:39:46.775Z,23.06
2023-03-06T11:42:21.910Z,23.06
2023-03-06T11:45:02.845Z,23.03
2023-03-06T11:47:35.317Z,23.01
2023-03-06T11:50:17.908Z,23.05
2023-03-06T11:52:51.622Z,23.20
2023-03-06T11:55:32.921Z,23.32
2023-03-06T11:58:24.736Z,23.44
2023-03-06T12:00:57.318Z,23.32
2023-03-06T12:03:49.005Z,23.38
2023-03-06T12:06:28.320Z,23.72
2023-03-06T12:09:09.699Z,23.42
2023-03-06T12:11:45.710Z,23.30
2023-03-06T12:14:32.858Z,23.20
2023-03-06T12:17:14.859Z,23.39
2023-03-06T12:20:17.719Z,23.36
2023-03-06T12:22:57.793Z,23.24
2023-03-06T12:25:36.812Z,23.21
2023-03-06T12:28:31.478Z,23.15
2023-03-06T12:31:17.850Z,23.20
2023-03-06T12:33:53.599Z,23.28
2023-03-06T12:36:39.057Z,23.30
2023-03-06T12:39:24.554Z,23.20
2023-03-06T12:42:04.865Z,23.14
2023-03-06T12:45:17.004Z,23.14
2023-03-06T12:47:47.700Z,23.25
2023-03-06T12:50:22.424Z,23.15
2023-03-06T12:52:51.095Z,23.22
2023-03-06T12:55:23.732Z,23.30
2023-03-06T12:57:54.170Z,23.72
2023-03-06T13:00:58.769Z,23.68
2023-03-06T13:03:52.101Z,23.52
2023-03-06T13:06:39.222Z,23.48
2023-03-06T13:09:24.311Z,23.51
2023-03-06T13:12:15.648Z,23.48
2023-03-06T13:14:59.732Z,23.38
2023-03-06T13:17:34.742Z,23.37
2023-03-06T13:20:27.116Z,23.44
2023-03-06T13:22:54.892Z,23.36
2023-03-06T13:25:36.626Z,23.38
2023-03-06T13:28:05.388Z,23.33
2023-03-06T13:30:45.709Z,23.34
2023-03-06T13:33:49.578Z,23.52
2023-03-06T13:36:24.245Z,23.52
2023-03-06T13:38:57.262Z,23.51
2023-03-06T13:41:44.198Z,23.42
2023-03-06T13:44:48.111Z,23.53
2023-03-06T13:48:02.807Z,23.48
2023-03-06T13:50:39.128Z,23.43
2023-03-06T13:53:48.633Z,23.42
2023-03-06T13:56:33.591Z,23.33
2023-03-06T13:59:22.661Z,23.49
2023-03-06T14:02:02.229Z,23.34
2023-03-06T14:04:38.561Z,23.35
2023-03-06T14:07:23.019Z,23.49
2023-03-06T14:10:01.253Z,23.48
2023-03-06T14:12:33.206Z,23.47
2023-03-06T14:15:04.835Z,23.40
2023-03-06T14:17:34.546Z,23.46
2023-03-06T14:20:04.481Z,23.51
2023-03-06T14:22:32.159Z,23.46
2023-03-06T14:25:03.882Z,23.30
2023-03-06T14:27:44.495Z,23.21
2023-03-06T14:30:16.441Z,23.26
2023-03-06T14:32:44.464Z,23.17
2023-03-06T14:35:26.801Z,23.16
2023-03-06T14:37:57.736Z,23.19
2023-03-06T14:40:30.197Z,23.22
2023-03-06T14:43:11.793Z,23.20
2023-03-06T14:45:49.431Z,23.22
2023-03-06T14:48:17.230Z,23.22
2023-03-06T14:50:51.155Z,23.20
2023-03-06T14:53:23.407Z,23.20
2023-03-06T14:55:53.384Z,21.93
2023-03-06T14:58:28.996Z,22.77
2023-03-06T15:00:59.434Z,22.95
2023-03-06T15:03:34.546Z,23.02
2023-03-06T15:06:05.084Z,23.06
2023-03-06T15:08:36.371Z,23.09
2023-03-06T15:11:05.790Z,23.08
2023-03-06T15:13:34.549Z,23.09
2023-03-06T15:16:03.654Z,23.10
2023-03-06T15:18:33.134Z,23.10
2023-03-06T15:21:10.969Z,23.11
2023-03-06T15:23:40.460Z,23.09
2023-03-06T15:26:29.249Z,23.10
2023-03-06T15:29:22.211Z,23.10
2023-03-06T15:31:50.166Z,23.11
2023-03-06T15:34:20.606Z,23.10
2023-03-06T15:36:52.569Z,23.11
2023-03-06T15:39:34.950Z,23.10
2023-03-06T15:42:13.539Z,23.10
2023-03-06T15:44:41.291Z,23.10
2023-03-06T15:47:10.938Z,23.09
2023-03-06T15:49:38.761Z,23.09
2023-03-06T15:52:08.207Z,23.10
2023-03-06T15:54:36.449Z,23.09
2023-03-06T15:57:05.695Z,23.09
2023-03-06T15:59:41.568Z,23.09
2023-03-06T16:02:15.704Z,23.08
2023-03-06T16:04:43.638Z,23.07
2023-03-06T16:07:12.742Z,23.08
2023-03-06T16:09:41.276Z,23.07
2023-03-06T16:12:15.606Z,23.07
2023-03-06T16:14:43.825Z,23.06
2023-03-06T16:17:12.582Z,23.02
2023-03-06T16:19:40.466Z,22.89
2023-03-06T16:22:08.487Z,22.80
2023-03-06T16:24:37.621Z,22.81
2023-03-06T16:27:05.649Z,22.71
2023-03-06T16:29:33.291Z,22.72
2023-03-06T16:32:01.871Z,22.66
2023-03-06T16:34:29.754Z,22.65
2023-03-06T16:36:57.832Z,22.61
2023-03-06T16:39:25.451Z,22.59
2023-03-06T16:41:55.864Z,22.54
2023-03-06T16:44:23.571Z,22.47
2023-03-06T16:46:51.360Z,22.52
2023-03-06T16:49:20.658Z,22.55
2023-03-06T16:51:48.547Z,22.62
2023-03-06T16:54:16.233Z,22.69
2023-03-06T16:56:44.362Z,22.79
2023-03-06T16:59:13.644Z,22.85
2023-03-06T17:01:42.249Z,22.89
2023-03-06T17:04:09.925Z,22.90
2023-03-06T17:06:38.024Z,22.90
2023-03-06T17:09:05.882Z,22.91
2023-03-06T17:11:33.491Z,22.90
2023-03-06T17:14:01.857Z,22.90
2023-03-06T17:16:30.954Z,22.90
2023-03-06T17:18:58.619Z,22.92
2023-03-06T17:21:26.248Z,22.91
2023-03-06T17:23:53.950Z,22.90
2023-03-06T17:26:21.710Z,22.93
2023-03-06T17:28:49.719Z,22.91
2023-03-06T17:31:18.675Z,22.91
2023-03-06T17:33:48.189Z,22.93
2023-03-06T17:36:15.999Z,22.92
2023-03-06T17:38:44.029Z,22.92
2023-03-06T17:41:12.867Z,22.91
2023-03-06T17:43:41.271Z,22.90
2023-03-06T17:46:10.971Z,22.91
2023-03-06T17:48:38.614Z,22.91
2023-03-06T17:51:07.942Z,22.91
2023-03-06T17:53:36.225Z,22.90
2023-03-06T17:56:04.485Z,22.90
2023-03-06T17:58:32.290Z,22.92
2023-03-06T18:01:00.195Z,22.93
2023-03-06T18:03:27.804Z,22.93
2023-03-06T18:05:59.844Z,22.92
2023-03-06T18:08:28.883Z,22.93
2023-03-06T18:10:59.661Z,22.92
2023-03-06T18:13:27.195Z,22.93
2023-03-06T18:15:54.886Z,22.94
2023-03-06T18:18:22.642Z,22.94
2023-03-06T18:20:51.830Z,22.93
2023-03-06T18:23:19.586Z,22.95
2023-03-06T18:25:48.773Z,22.96
2023-03-06T18:28:16.458Z,22.95
2023-03-06T18:30:44.098Z,22.94
2023-03-06T18:33:11.714Z,22.94
2023-03-06T18:35:39.347Z,22.96
2023-03-06T18:38:06.923Z,22.96
2023-03-06T18:40:34.589Z,22.96
2023-03-06T18:43:06.389Z,22.95
2023-03-06T18:45:33.956Z,22.90
2023-03-06T18:48:01.588Z,22.88
2023-03-06T18:50:29.201Z,22.84
2023-03-06T18:52:56.773Z,22.75
2023-03-06T18:55:24.886Z,22.73
2023-03-06T18:57:52.477Z,22.73
2023-03-06T19:00:22.718Z,22.67
2023-03-06T19:02:50.291Z,22.63
2023-03-06T19:05:17.951Z,22.56
2023-03-06T19:07:45.650Z,22.57
2023-03-06T19:10:13.506Z,22.55
2023-03-06T19:12:41.084Z,22.53
2023-03-06T19:15:09.691Z,22.48
2023-03-06T19:17:39.217Z,22.48
2023-03-06T19:20:07.863Z,22.51
2023-03-06T19:22:35.559Z,22.57
2023-03-06T19:25:03.990Z,22.66
2023-03-06T19:27:32.120Z,22.70
2023-03-06T19:29:59.730Z,22.72
2023-03-06T19:32:30.310Z,22.77
2023-03-06T19:34:59.367Z,22.82
2023-03-06T19:37:26.940Z,22.84
2023-03-06T19:39:55.129Z,22.85
2023-03-06T19:42:22.727Z,22.85
2023-03-06T19:44:50.376Z,22.88
2023-03-06T19:47:17.920Z,22.84
2023-03-06T19:49:46.036Z,22.86
2023-03-06T19:52:15.387Z,22.89
2023-03-06T19:54:42.993Z,22.87
2023-03-06T19:57:10.613Z,22.90
2023-03-06T19:59:38.292Z,22.87
2023-03-06T20:02:06.077Z,22.88
2023-03-06T20:04:34.048Z,22.87
2023-03-06T20:07:01.639Z,22.85
2023-03-06T20:09:31.195Z,22.87
2023-03-06T20:11:58.879Z,22.88
2023-03-06T20:14:26.785Z,22.89
2023-03-06T20:16:54.284Z,22.89
2023-03-06T20:19:21.891Z,22.89
2023-03-06T20:21:49.416Z,22.88
2023-03-06T20:24:17.373Z,22.88
2023-03-06T20:26:47.259Z,22.89
2023-03-06T20:29:15.269Z,22.88
2023-03-06T20:31:42.878Z,22.89
2023-03-06T20:34:11.418Z,22.85
2023-03-06T20:36:39.877Z,22.88
2023-03-06T20:39:11.405Z,22.88
2023-03-06T20:41:39.602Z,22.88
2023-03-06T20:44:14.546Z,22.88
2023-03-06T20:46:42.417Z,22.86
2023-03-06T20:49:11.349Z,22.88
2023-03-06T20:51:39.978Z,22.89
2023-03-06T20:54:09.149Z,22.86
2023-03-06T20:56:37.287Z,22.86
2023-03-06T20:59:05.006Z,22.88
2023-03-06T21:01:35.917Z,22.86
2023-03-06T21:04:04.164Z,22.86
2023-03-06T21:06:32.452Z,22.89
2023-03-06T21:09:00.930Z,22.88
2023-03-06T21:11:28.975Z,22.84
2023-03-06T21:13:57.034Z,22.86
2023-03-06T21:16:25.964Z,22.86
2023-03-06T21:18:56.896Z,22.86
2023-03-06T21:21:29.098Z,22.88
2023-03-06T21:23:56.610Z,22.90
2023-03-06T21:26:26.710Z,22.89
2023-03-06T21:28:54.589Z,22.87
2023-03-06T21:31:22.843Z,22.87
2023-03-06T21:33:51.552Z,22.89
2023-03-06T21:36:21.105Z,22.88
2023-03-06T21:38:50.056Z,22.89
2023-03-06T21:41:19.260Z,22.89
2023-03-06T21:43:47.284Z,22.81
2023-03-06T21:46:14.833Z,22.81
2023-03-06T21:48:43.124Z,22.79
2023-03-06T21:51:12.470Z,22.71
2023-03-06T21:53:44.147Z,22.66
2023-03-06T21:56:12.915Z,22.61
2023-03-06T21:58:40.656Z,22.64
2023-03-06T22:01:11.715Z,22.55
2023-03-06T22:03:39.647Z,22.55
2023-03-06T22:06:08.955Z,22.51
2023-03-06T22:08:36.686Z,22.50
2023-03-06T22:11:11.201Z,22.46
2023-03-06T22:13:38.933Z,22.45
2023-03-06T22:16:07.399Z,22.42
2023-03-06T22:18:35.159Z,22.40
2023-03-06T22:21:07.854Z,22.36
2023-03-06T22:23:35.915Z,22.40
2023-03-06T22:26:04.633Z,22.39
2023-03-06T22:28:34.087Z,22.29
2023-03-06T22:31:09.179Z,22.33
2023-03-06T22:33:37.264Z,22.30
2023-03-06T22:36:07.533Z,22.31
2023-03-06T22:38:37.256Z,22.45
2023-03-06T22:41:04.948Z,22.49
2023-03-06T22:43:34.894Z,22.55
2023-03-06T22:46:02.874Z,22.65
2023-03-06T22:48:30.619Z,22.67
2023-03-06T22:51:02.581Z,22.70
2023-03-06T22:53:30.118Z,22.71
2023-03-06T22:55:58.969Z,22.70
2023-03-06T22:58:27.171Z,22.74
2023-03-06T23:00:56.209Z,22.75
2023-03-06T23:03:23.796Z,22.76
2023-03-06T23:05:51.371Z,22.73
2023-03-06T23:08:19.344Z,22.76
2023-03-06T23:10:46.885Z,22.75
2023-03-06T23:13:32.990Z,22.75
2023-03-06T23:16:20.695Z,22.78
2023-03-06T23:19:07.431Z,22.78
2023-03-06T23:21:53.533Z,22.74
2023-03-06T23:24:39.377Z,22.77
2023-03-06T23:27:07.204Z,22.69
2023-03-06T23:29:34.742Z,22.77
2023-03-06T23:32:04.230Z,22.79
2023-03-06T23:34:32.323Z,22.74
2023-03-06T23:36:59.866Z,22.76
2023-03-06T23:39:27.836Z,22.78
2023-03-06T23:41:55.517Z,22.79
2023-03-06T23:44:24.466Z,22.79
2023-03-06T23:46:53.104Z,22.75
2023-03-06T23:49:22.112Z,22.78
2023-03-06T23:51:49.749Z,22.78
2023-03-06T23:54:17.784Z,22.79
2023-03-06T23:56:45.398Z,22.78
2023-03-06T23:59:13.132Z,22.76
